createdAt,value
2022-09-28T00:00:46.648Z,24.37
2022-09-28T00:03:13.793Z,23.34
2022-09-28T00:05:40.622Z,23.04
2022-09-28T00:08:07.555Z,22.66
2022-09-28T00:10:34.245Z,22.52
2022-09-28T00:13:01.838Z,22.70
2022-09-28T00:15:29.222Z,22.91
2022-09-28T00:17:56.324Z,24.24
2022-09-28T00:20:22.991Z,25.04
2022-09-28T00:22:49.738Z,25.82
2022-09-28T00:25:17.065Z,25.56
2022-09-28T00:27:49.342Z,27.48
2022-09-28T00:30:16.715Z,26.88
2022-09-28T00:32:43.857Z,24.02
2022-09-28T00:35:11.377Z,25.31
2022-09-28T00:37:38.226Z,23.69
2022-09-28T00:40:05.545Z,24.03
2022-09-28T00:42:32.246Z,22.60
2022-09-28T00:44:59.729Z,22.56
2022-09-28T00:47:40.507Z,22.98
2022-09-28T00:50:14.790Z,23.44
2022-09-28T00:53:01.891Z,22.70
2022-09-28T00:55:40.629Z,25.98
2022-09-28T00:58:11.795Z,23.37
2022-09-28T01:00:41.126Z,23.22
2022-09-28T01:03:09.641Z,22.18
2022-09-28T01:05:39.403Z,22.91
2022-09-28T01:08:08.125Z,24.59
2022-09-28T01:10:35.039Z,22.22
2022-09-28T01:13:02.016Z,23.87
2022-09-28T01:15:30.486Z,24.33
2022-09-28T01:18:01.706Z,25.29
2022-09-28T01:20:54.047Z,25.90
2022-09-28T01:23:44.584Z,25.49
2022-09-28T01:26:45.173Z,24.88
2022-09-28T01:29:35.326Z,26.43
2022-09-28T01:32:25.338Z,27.95
2022-09-28T01:35:01.546Z,26.20
2022-09-28T01:37:45.339Z,26.67
2022-09-28T01:40:15.035Z,25.18
2022-09-28T01:42:45.134Z,24.81
2022-09-28T01:45:28.676Z,23.97
2022-09-28T01:48:02.971Z,25.81
2022-09-28T01:50:35.433Z,23.72
2022-09-28T01:53:09.641Z,25.16
2022-09-28T01:55:50.387Z,26.22
2022-09-28T01:58:38.796Z,23.84
2022-09-28T02:01:17.440Z,24.10
2022-09-28T02:03:55.759Z,23.82
2022-09-28T02:06:31.957Z,23.04
2022-09-28T02:09:05.546Z,23.92
2022-09-28T02:11:47.326Z,22.72
2022-09-28T02:14:18.127Z,23.55
2022-09-28T02:16:50.422Z,22.42
2022-09-28T02:19:24.707Z,24.45
2022-09-28T02:21:59.012Z,22.86
2022-09-28T02:24:34.786Z,22.54
2022-09-28T02:27:11.446Z,23.09
2022-09-28T02:29:38.225Z,22.86
2022-09-28T02:32:05.297Z,22.42
2022-09-28T02:34:32.986Z,24.62
2022-09-28T02:37:00.111Z,23.08
2022-09-28T02:39:26.941Z,22.84
2022-09-28T02:42:25.787Z,24.52
2022-09-28T02:45:15.610Z,22.88
2022-09-28T02:48:09.326Z,22.24
2022-09-28T02:51:06.263Z,22.66
2022-09-28T02:53:45.110Z,23.19
2022-09-28T02:56:37.626Z,24.42
2022-09-28T02:59:07.574Z,22.81
2022-09-28T03:01:46.582Z,24.78
2022-09-28T03:04:37.683Z,22.84
2022-09-28T03:07:31.270Z,24.95
2022-09-28T03:10:10.729Z,25.02
2022-09-28T03:12:39.246Z,25.07
2022-09-28T03:15:22.993Z,24.83
2022-09-28T03:17:49.830Z,24.41
2022-09-28T03:20:17.692Z,24.33
2022-09-28T03:23:00.277Z,25.23
2022-09-28T03:25:32.222Z,25.90
2022-09-28T03:27:59.359Z,26.30
2022-09-28T03:30:27.089Z,26.23
2022-09-28T03:32:58.806Z,23.59
2022-09-28T03:35:27.118Z,23.95
2022-09-28T03:37:57.282Z,23.24
2022-09-28T03:40:26.159Z,23.95
2022-09-28T03:42:53.993Z,26.23
2022-09-28T03:45:21.005Z,23.26
2022-09-28T03:47:49.949Z,21.94
2022-09-28T03:50:18.487Z,23.94
2022-09-28T03:52:45.230Z,21.84
2022-09-28T03:55:12.177Z,22.69
2022-09-28T03:57:38.913Z,21.80
2022-09-28T04:00:06.368Z,22.90
2022-09-28T04:02:40.705Z,22.58
2022-09-28T04:05:09.391Z,23.30
2022-09-28T04:07:37.629Z,22.57
2022-09-28T04:10:05.016Z,25.34
2022-09-28T04:12:32.194Z,23.64
2022-09-28T04:14:58.885Z,23.08
2022-09-28T04:17:25.823Z,23.16
2022-09-28T04:19:52.841Z,24.82
2022-09-28T04:22:37.739Z,24.78
2022-09-28T04:25:05.141Z,22.76
2022-09-28T04:27:50.490Z,24.19
2022-09-28T04:30:18.111Z,24.15
2022-09-28T04:32:49.167Z,23.78
2022-09-28T04:35:16.747Z,23.56
2022-09-28T04:37:43.773Z,23.75
2022-09-28T04:40:11.299Z,24.16
2022-09-28T04:42:38.234Z,25.02
2022-09-28T04:45:05.790Z,24.64
2022-09-28T04:47:35.919Z,26.79
2022-09-28T04:50:28.956Z,25.94
2022-09-28T04:53:14.397Z,24.41
2022-09-28T04:55:41.338Z,24.61
2022-09-28T04:58:08.075Z,26.03
2022-09-28T05:00:35.211Z,25.58
2022-09-28T05:03:28.290Z,23.22
2022-09-28T05:06:15.677Z,25.77
2022-09-28T05:08:47.275Z,23.77
2022-09-28T05:11:15.485Z,25.17
2022-09-28T05:13:45.494Z,25.12
2022-09-28T05:16:20.429Z,24.49
2022-09-28T05:19:16.220Z,26.19
2022-09-28T05:21:46.915Z,24.58
2022-09-28T05:24:13.811Z,25.13
2022-09-28T05:26:44.530Z,22.76
2022-09-28T05:29:11.563Z,25.29
2022-09-28T05:31:57.198Z,26.52
2022-09-28T05:34:35.254Z,23.88
2022-09-28T05:37:02.050Z,22.32
2022-09-28T05:39:30.686Z,22.42
2022-09-28T05:41:58.039Z,24.81
2022-09-28T05:44:25.968Z,25.86
2022-09-28T05:46:54.736Z,23.80
2022-09-28T05:49:23.052Z,23.36
2022-09-28T05:51:49.743Z,23.37
2022-09-28T05:54:16.720Z,22.72
2022-09-28T05:56:46.259Z,23.74
2022-09-28T05:59:13.598Z,24.57
2022-09-28T06:01:41.286Z,24.37
2022-09-28T06:04:10.226Z,22.96
2022-09-28T06:06:38.459Z,23.81
2022-09-28T06:09:05.436Z,26.11
2022-09-28T06:12:05.597Z,23.66
2022-09-28T06:14:39.715Z,22.57
2022-09-28T06:17:06.529Z,25.34
2022-09-28T06:19:33.402Z,23.43
2022-09-28T06:22:18.667Z,23.77
2022-09-28T06:24:55.058Z,23.60
2022-09-28T06:27:24.028Z,24.68
2022-09-28T06:29:50.982Z,23.88
2022-09-28T06:32:17.795Z,23.43
2022-09-28T06:34:47.674Z,23.75
2022-09-28T06:37:14.435Z,25.19
2022-09-28T06:39:41.626Z,24.55
2022-09-28T06:42:08.345Z,22.96
2022-09-28T06:44:53.579Z,23.40
2022-09-28T06:47:37.783Z,24.69
2022-09-28T06:50:16.495Z,25.65
2022-09-28T06:52:54.222Z,24.74
2022-09-28T06:55:43.025Z,26.18
2022-09-28T06:58:12.162Z,26.68
2022-09-28T07:00:40.045Z,27.72
2022-09-28T07:03:11.593Z,26.55
2022-09-28T07:06:04.954Z,27.16
2022-09-28T07:08:37.616Z,26.28
2022-09-28T07:11:26.839Z,24.02
2022-09-28T07:14:22.237Z,23.34
2022-09-28T07:17:12.313Z,24.44
2022-09-28T07:19:39.894Z,25.67
2022-09-28T07:22:06.634Z,26.83
2022-09-28T07:24:33.649Z,25.33
2022-09-28T07:27:39.674Z,24.79
2022-09-28T07:30:15.743Z,25.45
2022-09-28T07:33:14.659Z,26.83
2022-09-28T07:35:55.637Z,26.79
2022-09-28T07:38:27.111Z,27.48
2022-09-28T07:41:11.912Z,27.39
2022-09-28T07:43:44.055Z,27.23
2022-09-28T07:46:14.864Z,27.78
2022-09-28T07:48:51.706Z,27.73
2022-09-28T07:51:38.753Z,28.74
2022-09-28T07:54:17.945Z,27.77
2022-09-28T07:57:03.253Z,28.66
2022-09-28T07:59:50.666Z,28.10
2022-09-28T08:02:43.356Z,27.85
2022-09-28T08:05:12.532Z,26.81
2022-09-28T08:07:39.361Z,26.88
2022-09-28T08:10:09.534Z,26.93
2022-09-28T08:13:06.374Z,29.46
2022-09-28T08:15:54.702Z,27.41
2022-09-28T08:18:35.357Z,28.84
2022-09-28T08:21:23.222Z,27.57
2022-09-28T08:23:50.681Z,27.06
2022-09-28T08:26:17.645Z,26.76
2022-09-28T08:28:46.976Z,27.24
2022-09-28T08:31:42.508Z,26.00
2022-09-28T08:34:44.367Z,23.68
2022-09-28T08:37:27.749Z,30.52
2022-09-28T08:40:24.623Z,26.83
2022-09-28T08:43:48.247Z,28.54
2022-09-28T08:46:48.073Z,26.90
2022-09-28T08:49:36.909Z,28.86
2022-09-28T08:52:23.659Z,29.54
2022-09-28T08:55:20.032Z,27.31
2022-09-28T08:57:54.265Z,30.24
2022-09-28T09:00:46.211Z,29.47
2022-09-28T09:03:17.488Z,29.97
2022-09-28T09:06:29.797Z,28.74
2022-09-28T09:09:27.233Z,27.74
2022-09-28T09:12:18.166Z,29.60
2022-09-28T09:14:50.931Z,28.62
2022-09-28T09:17:42.163Z,27.66
2022-09-28T09:20:35.874Z,30.78
2022-09-28T09:23:15.340Z,27.76
2022-09-28T09:25:47.018Z,28.12
2022-09-28T09:28:19.886Z,27.93
2022-09-28T09:31:06.116Z,27.03
2022-09-28T09:34:17.884Z,27.40
2022-09-28T09:37:02.273Z,27.05
2022-09-28T09:40:02.498Z,28.11
2022-09-28T09:43:05.757Z,28.43
2022-09-28T09:46:11.910Z,29.36
2022-09-28T09:49:03.923Z,27.08
2022-09-28T09:51:37.072Z,27.78
2022-09-28T09:54:13.631Z,27.59
2022-09-28T09:57:22.111Z,27.74
2022-09-28T10:00:15.811Z,26.26
2022-09-28T10:02:54.158Z,28.39
2022-09-28T10:05:36.060Z,27.47
2022-09-28T10:08:08.898Z,27.68
2022-09-28T10:10:40.712Z,28.27
2022-09-28T10:13:10.222Z,26.03
2022-09-28T10:15:39.778Z,27.14
2022-09-28T10:18:21.108Z,27.37
2022-09-28T10:21:06.401Z,26.63
2022-09-28T10:23:59.385Z,27.78
2022-09-28T10:26:35.787Z,27.07
2022-09-28T10:29:16.234Z,24.28
2022-09-28T10:31:49.526Z,28.21
2022-09-28T10:34:29.535Z,26.47
2022-09-28T10:37:04.019Z,28.99
2022-09-28T10:39:55.350Z,30.20
2022-09-28T10:42:27.634Z,26.25
2022-09-28T10:44:57.406Z,25.36
2022-09-28T10:47:45.095Z,25.20
2022-09-28T10:50:26.690Z,26.91
2022-09-28T10:53:22.241Z,26.94
2022-09-28T10:56:28.945Z,25.00
2022-09-28T10:59:24.255Z,27.14
2022-09-28T11:01:57.576Z,28.02
2022-09-28T11:04:27.802Z,24.77
2022-09-28T11:09:30.872Z,25.31
2022-09-28T11:12:05.940Z,26.58
2022-09-28T11:14:42.195Z,26.68
2022-09-28T11:17:32.726Z,27.17
2022-09-28T11:20:27.825Z,26.06
2022-09-28T11:23:00.734Z,25.87
2022-09-28T11:25:32.777Z,24.89
2022-09-28T11:28:04.852Z,25.40
2022-09-28T11:30:34.198Z,25.11
2022-09-28T11:33:35.192Z,25.33
2022-09-28T11:36:46.210Z,25.13
2022-09-28T11:39:19.426Z,25.78
2022-09-28T11:41:54.324Z,24.35
2022-09-28T11:44:31.020Z,24.55
2022-09-28T11:47:28.594Z,25.38
2022-09-28T11:50:24.019Z,24.18
2022-09-28T11:52:54.790Z,24.21
2022-09-28T11:55:21.584Z,24.71
2022-09-28T11:58:08.658Z,24.79
2022-09-28T12:00:42.475Z,24.13
2022-09-28T12:03:25.227Z,23.51
2022-09-28T12:06:01.034Z,25.73
2022-09-28T12:08:31.952Z,24.13
2022-09-28T12:11:18.345Z,25.04
2022-09-28T12:14:28.730Z,27.21
2022-09-28T12:17:07.881Z,25.50
2022-09-28T12:19:48.730Z,27.35
2022-09-28T12:22:22.245Z,26.47
2022-09-28T12:24:56.644Z,26.73
2022-09-28T12:27:44.610Z,24.39
2022-09-28T12:30:22.307Z,24.04
2022-09-28T12:33:12.342Z,25.63
2022-09-28T12:35:57.702Z,24.36
2022-09-28T12:38:43.326Z,24.82
2022-09-28T12:41:32.444Z,26.43
2022-09-28T12:44:17.620Z,23.46
2022-09-28T12:47:25.913Z,23.00
2022-09-28T12:53:30.689Z,22.40
2022-09-28T12:56:11.795Z,25.05
2022-09-28T12:59:01.155Z,26.36
2022-09-28T13:02:09.786Z,27.57
2022-09-28T13:05:02.124Z,24.99
2022-09-28T13:07:58.057Z,24.06
2022-09-28T13:10:36.337Z,23.42
2022-09-28T13:13:12.232Z,23.63
2022-09-28T13:15:45.202Z,24.94
2022-09-28T13:18:11.896Z,24.93
2022-09-28T13:20:47.831Z,27.51
2022-09-28T13:23:33.376Z,26.09
2022-09-28T13:26:14.021Z,24.72
2022-09-28T13:28:43.391Z,25.19
2022-09-28T13:31:11.484Z,24.56
2022-09-28T13:33:45.111Z,26.63
2022-09-28T13:36:33.057Z,23.38
2022-09-28T13:39:01.106Z,25.57
2022-09-28T13:41:47.431Z,23.87
2022-09-28T13:44:16.509Z,23.49
2022-09-28T13:47:01.532Z,22.96
2022-09-28T13:49:45.517Z,23.64
2022-09-28T13:52:31.544Z,23.72
2022-09-28T13:55:19.531Z,24.81
2022-09-28T13:57:56.765Z,23.26
2022-09-28T14:00:45.609Z,23.16
2022-09-28T14:03:15.162Z,25.41
2022-09-28T14:06:00.743Z,24.27
2022-09-28T14:08:34.866Z,23.35
2022-09-28T14:11:34.421Z,23.69
2022-09-28T14:14:08.718Z,23.85
2022-09-28T14:16:36.968Z,23.67
2022-09-28T14:19:16.403Z,24.71
2022-09-28T14:21:55.193Z,23.75
2022-09-28T14:25:14.262Z,24.65
2022-09-28T14:27:53.197Z,22.67
2022-09-28T14:30:23.861Z,23.39
2022-09-28T14:32:56.921Z,24.25
2022-09-28T14:35:46.351Z,26.09
2022-09-28T14:38:36.145Z,26.63
2022-09-28T14:41:10.543Z,25.14
2022-09-28T14:43:57.619Z,24.09
2022-09-28T14:46:31.999Z,24.67
2022-09-28T14:49:04.139Z,26.84
2022-09-28T14:51:31.071Z,25.49
2022-09-28T14:54:12.889Z,26.60
2022-09-28T14:56:44.289Z,25.18
2022-09-28T14:59:36.084Z,26.12
2022-09-28T15:02:12.480Z,26.56
2022-09-28T15:05:08.788Z,24.63
2022-09-28T15:07:51.025Z,25.50
2022-09-28T15:10:28.335Z,25.10
2022-09-28T15:12:56.884Z,26.99
2022-09-28T15:15:40.223Z,26.10
2022-09-28T15:18:20.045Z,24.46
2022-09-28T15:20:49.104Z,24.88
2022-09-28T15:23:39.214Z,26.87
2022-09-28T15:26:18.473Z,25.83
2022-09-28T15:28:45.244Z,24.26
2022-09-28T15:31:19.605Z,23.98
2022-09-28T15:34:06.248Z,26.51
2022-09-28T15:36:46.642Z,26.78
2022-09-28T15:39:19.195Z,23.86
2022-09-28T15:41:48.482Z,24.63
2022-09-28T15:44:33.249Z,24.17
2022-09-28T15:47:15.396Z,25.32
2022-09-28T15:49:50.903Z,24.94
2022-09-28T15:52:26.768Z,25.62
2022-09-28T15:54:54.212Z,23.65
2022-09-28T15:57:47.629Z,24.26
2022-09-28T16:00:20.778Z,24.63
2022-09-28T16:03:16.828Z,25.47
2022-09-28T16:05:46.975Z,23.59
2022-09-28T16:08:24.280Z,23.70
2022-09-28T16:11:03.037Z,22.84
2022-09-28T16:13:30.405Z,22.61
2022-09-28T16:15:59.861Z,23.73
2022-09-28T16:18:29.328Z,22.87
2022-09-28T16:21:17.438Z,22.92
2022-09-28T16:23:51.947Z,23.60
2022-09-28T16:26:31.428Z,22.48
2022-09-28T16:28:58.693Z,23.34
2022-09-28T16:31:33.818Z,24.69
2022-09-28T16:34:10.826Z,24.94
2022-09-28T16:36:47.332Z,24.71
2022-09-28T16:39:19.049Z,24.77
2022-09-28T16:41:52.067Z,23.59
2022-09-28T16:44:28.695Z,23.03
2022-09-28T16:46:58.461Z,21.71
2022-09-28T16:49:25.678Z,22.14
2022-09-28T16:51:52.881Z,22.57
2022-09-28T16:54:42.719Z,22.04
2022-09-28T16:57:12.504Z,23.06
2022-09-28T16:59:39.707Z,22.17
2022-09-28T17:02:42.118Z,22.91
2022-09-28T17:05:07.406Z,22.64
2022-09-28T17:07:34.631Z,24.14
2022-09-28T17:10:01.477Z,22.98
2022-09-28T17:12:28.946Z,23.18
2022-09-28T17:14:56.033Z,22.80
2022-09-28T17:17:22.998Z,22.01
2022-09-28T17:19:49.664Z,22.45
2022-09-28T17:22:16.883Z,22.72
2022-09-28T17:24:45.580Z,22.16
2022-09-28T17:27:18.924Z,23.59
2022-09-28T17:29:45.862Z,22.83
2022-09-28T17:32:18.113Z,23.16
2022-09-28T17:34:51.569Z,23.12
2022-09-28T17:37:22.911Z,22.80
2022-09-28T17:39:49.635Z,23.57
2022-09-28T17:42:17.287Z,22.71
2022-09-28T17:44:43.979Z,22.95
2022-09-28T17:47:11.641Z,22.91
2022-09-28T17:49:38.895Z,22.52
2022-09-28T17:52:05.832Z,22.15
2022-09-28T17:54:33.966Z,22.61
2022-09-28T17:57:00.896Z,22.07
2022-09-28T17:59:28.719Z,22.32
2022-09-28T18:01:58.322Z,22.80
2022-09-28T18:04:50.911Z,22.06
2022-09-28T18:07:13.830Z,22.71
2022-09-28T18:09:40.534Z,23.78
2022-09-28T18:12:07.848Z,23.27
2022-09-28T18:14:36.059Z,23.34
2022-09-28T18:17:03.131Z,22.92
2022-09-28T18:19:32.131Z,23.71
2022-09-28T18:21:59.297Z,23.48
2022-09-28T18:24:26.383Z,22.46
2022-09-28T18:26:53.453Z,24.19
2022-09-28T18:29:20.184Z,25.91
2022-09-28T18:31:48.794Z,23.94
2022-09-28T18:34:15.629Z,22.90
2022-09-28T18:36:42.346Z,22.24
2022-09-28T18:39:09.207Z,23.55
2022-09-28T18:41:36.092Z,23.08
2022-09-28T18:44:02.927Z,22.62
2022-09-28T18:46:34.687Z,25.85
2022-09-28T18:49:01.959Z,24.21
2022-09-28T18:51:28.770Z,24.46
2022-09-28T18:53:55.965Z,24.10
2022-09-28T18:56:22.741Z,23.76
2022-09-28T18:58:52.802Z,22.36
2022-09-28T19:01:36.512Z,23.72
2022-09-28T19:04:05.877Z,24.22
2022-09-28T19:06:34.440Z,23.45
2022-09-28T19:09:01.479Z,22.60
2022-09-28T19:11:28.892Z,24.52
2022-09-28T19:13:56.206Z,23.53
2022-09-28T19:16:28.795Z,23.79
2022-09-28T19:19:00.929Z,24.06
2022-09-28T19:21:27.840Z,23.92
2022-09-28T19:23:55.759Z,23.66
2022-09-28T19:26:27.561Z,23.66
2022-09-28T19:28:56.880Z,23.60
2022-09-28T19:31:24.427Z,23.41
2022-09-28T19:33:51.139Z,23.95
2022-09-28T19:36:21.881Z,25.67
2022-09-28T19:38:48.596Z,27.79
2022-09-28T19:41:43.792Z,25.64
2022-09-28T19:44:25.897Z,24.58
2022-09-28T19:47:08.042Z,24.21
2022-09-28T19:49:37.108Z,25.99
2022-09-28T19:52:15.855Z,25.21
2022-09-28T19:54:57.547Z,23.74
2022-09-28T19:57:35.114Z,23.09
2022-09-28T20:00:03.717Z,24.63
2022-09-28T20:02:34.694Z,23.90
2022-09-28T20:05:01.791Z,23.43
2022-09-28T20:07:32.803Z,24.70
2022-09-28T20:09:59.698Z,24.97
2022-09-28T20:12:26.499Z,25.73
2022-09-28T20:14:53.194Z,25.07
2022-09-28T20:17:21.892Z,25.43
2022-09-28T20:19:51.899Z,26.40
2022-09-28T20:22:19.980Z,26.05
2022-09-28T20:24:46.746Z,24.99
2022-09-28T20:27:13.406Z,24.71
2022-09-28T20:29:40.142Z,25.98
2022-09-28T20:32:06.905Z,26.63
2022-09-28T20:34:34.035Z,25.57
2022-09-28T20:37:00.758Z,24.63
2022-09-28T20:39:27.660Z,22.57
2022-09-28T20:41:55.066Z,25.16
2022-09-28T20:44:21.933Z,23.13
2022-09-28T20:46:52.241Z,22.88
2022-09-28T20:49:18.977Z,22.97
2022-09-28T20:51:45.735Z,23.22
2022-09-28T20:54:12.738Z,24.48
2022-09-28T20:56:39.743Z,23.84
2022-09-28T20:59:12.569Z,23.51
2022-09-28T21:01:40.518Z,24.51
2022-09-28T21:04:08.954Z,23.47
2022-09-28T21:06:38.007Z,23.06
2022-09-28T21:09:06.835Z,23.00
2022-09-28T21:11:35.690Z,23.19
2022-09-28T21:14:04.624Z,23.14
2022-09-28T21:16:33.058Z,23.22
2022-09-28T21:19:00.091Z,21.68
2022-09-28T21:21:27.565Z,21.76
2022-09-28T21:23:55.608Z,22.67
2022-09-28T21:26:24.930Z,22.72
2022-09-28T21:28:59.969Z,21.45
2022-09-28T21:31:32.777Z,22.57
2022-09-28T21:33:59.704Z,22.45
2022-09-28T21:36:27.383Z,22.23
2022-09-28T21:38:55.574Z,22.03
2022-09-28T21:41:25.521Z,21.19
2022-09-28T21:43:52.426Z,22.12
2022-09-28T21:46:19.343Z,21.84
2022-09-28T21:48:46.286Z,21.65
2022-09-28T21:51:14.789Z,21.85
2022-09-28T21:53:42.872Z,22.18
2022-09-28T21:56:12.820Z,22.28
2022-09-28T21:58:40.188Z,22.62
2022-09-28T22:01:13.137Z,22.24
2022-09-28T22:03:41.109Z,21.57
2022-09-28T22:06:08.691Z,22.04
2022-09-28T22:08:36.666Z,22.77
2022-09-28T22:11:05.753Z,26.35
2022-09-28T22:13:39.886Z,24.43
2022-09-28T22:16:07.614Z,24.83
2022-09-28T22:18:34.653Z,22.80
2022-09-28T22:21:09.121Z,25.39
2022-09-28T22:23:37.073Z,23.87
2022-09-28T22:26:03.764Z,24.25
2022-09-28T22:28:30.877Z,24.73
2022-09-28T22:30:58.314Z,23.21
2022-09-28T22:33:25.938Z,24.94
2022-09-28T22:35:53.382Z,24.87
2022-09-28T22:38:21.359Z,23.82
2022-09-28T22:40:54.375Z,24.22
2022-09-28T22:43:23.511Z,22.81
2022-09-28T22:45:50.690Z,27.02
2022-09-28T22:48:17.361Z,26.74
2022-09-28T22:50:50.819Z,25.02
2022-09-28T22:53:18.147Z,23.21
2022-09-28T22:55:44.869Z,22.91
2022-09-28T22:58:12.255Z,23.97
2022-09-28T23:00:39.580Z,24.48
2022-09-28T23:03:06.464Z,22.97
2022-09-28T23:05:33.433Z,22.80
2022-09-28T23:08:00.305Z,22.26
2022-09-28T23:10:27.391Z,23.10
2022-09-28T23:12:54.899Z,22.22
2022-09-28T23:15:22.937Z,22.19
2022-09-28T23:17:53.477Z,22.72
2022-09-28T23:20:24.125Z,22.17
2022-09-28T23:22:51.133Z,23.14
2022-09-28T23:25:19.650Z,22.49
2022-09-28T23:27:47.763Z,21.73
2022-09-28T23:30:16.153Z,22.84
2022-09-28T23:32:43.221Z,23.09
2022-09-28T23:35:10.834Z,23.88
2022-09-28T23:37:38.004Z,23.07
2022-09-28T23:40:06.163Z,22.60
2022-09-28T23:42:35.500Z,23.48
2022-09-28T23:45:02.288Z,23.47
2022-09-28T23:47:28.986Z,22.54
2022-09-28T23:49:55.816Z,22.45
2022-09-28T23:52:22.734Z,22.10
2022-09-28T23:54:49.462Z,22.42
2022-09-28T23:57:16.153Z,21.06
2022-09-28T23:59:42.829Z,22.00
